Time;durP1;ratioP1;P1;durP2;ratioP2;P2;SDS_P1;SDS_P2;PMS_P1;PMS_P2;Temp;Humidity;BMP_temperature;BMP_pressure;BME280_temperature;BME280_humidity;BME280_pressure;Samples;Min_cycle;Max_cycle;Signal;HPM_P1;HPM_P2
2024/03/14 00:01:06;;;;;;;1.50;1.40;;;;;;;;;;6123498;23;20164;-80
2024/03/14 00:03:36;;;;;;;1.57;1.47;;;;;;;;;;6123997;23;20235;-80
2024/03/14 00:06:04;;;;;;;1.60;1.50;;;;;;;;;;6097900;23;20191;-80
2024/03/14 00:08:32;;;;;;;1.53;1.43;;;;;;;;;;6122248;23;20565;-80
2024/03/14 00:10:59;;;;;;;1.40;1.30;;;;;;;;;;6123398;23;20167;-78
2024/03/14 00:13:28;;;;;;;1.90;1.60;;;;;;;;;;6122289;23;20183;-82
2024/03/14 00:15:58;;;;;;;1.70;1.60;;;;;;;;;;6121899;23;20174;-79
2024/03/14 00:18:26;;;;;;;1.60;1.50;;;;;;;;;;6122779;23;20201;-82
2024/03/14 00:20:54;;;;;;;1.70;1.60;;;;;;;;;;6122168;23;20191;-83
2024/03/14 00:23:23;;;;;;;1.80;1.70;;;;;;;;;;6123887;23;20511;-81
2024/03/14 00:25:51;;;;;;;1.70;1.60;;;;;;;;;;6122203;23;20160;-80
2024/03/14 00:28:23;;;;;;;1.70;1.60;;;;;;;;;;6123805;23;20172;-80
2024/03/14 00:30:50;;;;;;;1.70;1.60;;;;;;;;;;6141642;23;20190;-80
2024/03/14 00:33:17;;;;;;;2.17;1.97;;;;;;;;;;6153189;23;20166;-83
2024/03/14 00:35:45;;;;;;;1.80;1.70;;;;;;;;;;6127097;23;20249;-79
2024/03/14 00:38:15;;;;;;;1.83;1.73;;;;;;;;;;6153885;23;20147;-79
2024/03/14 00:40:43;;;;;;;2.07;1.73;;;;;;;;;;6127039;23;20640;-80
2024/03/14 00:43:10;;;;;;;2.33;1.93;;;;;;;;;;6153191;23;20171;-80
2024/03/14 00:45:38;;;;;;;1.87;1.77;;;;;;;;;;6127631;23;20167;-81
2024/03/14 00:48:07;;;;;;;2.00;1.90;;;;;;;;;;6153457;23;20202;-80
2024/03/14 00:50:36;;;;;;;2.10;2.00;;;;;;;;;;6153633;23;20167;-81
2024/03/14 00:53:04;;;;;;;1.90;1.80;;;;;;;;;;6127132;23;20199;-83
2024/03/14 00:55:32;;;;;;;2.23;2.03;;;;;;;;;;6127658;23;20179;-83
2024/03/14 00:58:02;;;;;;;2.33;2.13;;;;;;;;;;6153765;23;20247;-84
2024/03/14 01:00:29;;;;;;;2.30;2.10;;;;;;;;;;6153787;23;20161;-80
2024/03/14 01:02:58;;;;;;;2.30;2.10;;;;;;;;;;6126979;23;20190;-81
2024/03/14 01:05:25;;;;;;;2.30;2.10;;;;;;;;;;6153925;23;20163;-80
2024/03/14 01:07:53;;;;;;;1.97;1.87;;;;;;;;;;6127840;23;20167;-81
2024/03/14 01:10:21;;;;;;;2.00;1.90;;;;;;;;;;6153547;23;20171;-81
2024/03/14 01:12:49;;;;;;;2.30;2.00;;;;;;;;;;6153593;23;20187;-81
2024/03/14 01:15:22;;;;;;;2.00;1.90;;;;;;;;;;6127887;23;20186;-82
2024/03/14 01:17:50;;;;;;;2.03;1.93;;;;;;;;;;6153537;23;20148;-80
2024/03/14 01:20:18;;;;;;;2.33;2.13;;;;;;;;;;6127284;23;20174;-80
2024/03/14 01:22:48;;;;;;;2.83;2.40;;;;;;;;;;6127686;23;20163;-82
2024/03/14 01:25:16;;;;;;;2.50;2.17;;;;;;;;;;6126860;23;20175;-79
2024/03/14 01:27:44;;;;;;;2.50;2.30;;;;;;;;;;6153195;23;20167;-80
2024/03/14 01:30:15;;;;;;;2.43;2.23;;;;;;;;;;6102352;23;20289;-83
2024/03/14 01:32:42;;;;;;;2.40;2.20;;;;;;;;;;6153225;23;20303;-81
2024/03/14 01:35:10;;;;;;;2.60;2.40;;;;;;;;;;6153624;23;20163;-83
2024/03/14 01:37:39;;;;;;;2.70;2.50;;;;;;;;;;6153401;23;20171;-81
2024/03/14 01:40:07;;;;;;;3.07;2.77;;;;;;;;;;6102957;23;20641;-81
2024/03/14 01:42:34;;;;;;;2.90;2.60;;;;;;;;;;6127184;23;20618;-82
2024/03/14 01:45:09;;;;;;;2.50;2.30;;;;;;;;;;6128544;23;20626;-82
2024/03/14 01:47:37;;;;;;;2.47;2.27;;;;;;;;;;6155096;23;20277;-80
2024/03/14 01:50:05;;;;;;;2.90;2.70;;;;;;;;;;6130098;23;20163;-82
2024/03/14 01:52:34;;;;;;;3.00;2.70;;;;;;;;;;6129631;23;20198;-79
2024/03/14 01:55:03;;;;;;;2.67;2.27;;;;;;;;;;6155555;23;20163;-81
2024/03/14 01:57:31;;;;;;;2.70;2.50;;;;;;;;;;6105413;23;20174;-80
2024/03/14 01:59:59;;;;;;;2.60;2.40;;;;;;;;;;6129080;23;20171;-79
2024/03/14 02:02:27;;;;;;;2.33;2.13;;;;;;;;;;6105358;23;20244;-81
2024/03/14 02:04:57;;;;;;;2.70;2.50;;;;;;;;;;6129571;23;20219;-81
2024/03/14 02:07:26;;;;;;;2.57;2.37;;;;;;;;;;6129680;23;20166;-82
2024/03/14 02:09:54;;;;;;;2.73;2.53;;;;;;;;;;6105165;23;20205;-82
2024/03/14 02:12:21;;;;;;;2.47;2.27;;;;;;;;;;6105683;23;20269;-83
2024/03/14 02:14:49;;;;;;;2.50;2.30;;;;;;;;;;6155193;23;20191;-85
2024/03/14 02:17:16;;;;;;;2.80;2.57;;;;;;;;;;6155622;23;20171;-80
2024/03/14 02:19:44;;;;;;;2.77;2.57;;;;;;;;;;6129594;23;20225;-79
2024/03/14 02:22:19;;;;;;;2.50;2.30;;;;;;;;;;6155162;23;20181;-87
2024/03/14 02:24:47;;;;;;;2.70;2.50;;;;;;;;;;6129171;23;20583;-82
2024/03/14 02:27:15;;;;;;;2.87;2.63;;;;;;;;;;6155233;23;20167;-81
2024/03/14 02:29:43;;;;;;;2.60;2.40;;;;;;;;;;6129131;23;20230;-80
2024/03/14 02:32:11;;;;;;;2.70;2.50;;;;;;;;;;6105288;23;20195;-83
2024/03/14 02:34:38;;;;;;;3.37;2.47;;;;;;;;;;6155763;23;20626;-80
2024/03/14 02:37:06;;;;;;;2.93;2.63;;;;;;;;;;6129495;23;20169;-80
2024/03/14 02:39:35;;;;;;;2.93;2.73;;;;;;;;;;6105815;23;20610;-82
2024/03/14 02:42:02;;;;;;;3.53;3.23;;;;;;;;;;6105276;23;20177;-81
2024/03/14 02:44:31;;;;;;;3.27;2.97;;;;;;;;;;6155553;23;20636;-83
2024/03/14 02:46:59;;;;;;;3.30;3.00;;;;;;;;;;6130171;23;20183;-80
2024/03/14 02:49:27;;;;;;;3.60;3.30;;;;;;;;;;6129750;23;20223;-82
2024/03/14 02:51:55;;;;;;;3.83;3.43;;;;;;;;;;6105459;23;20237;-80
2024/03/14 02:54:22;;;;;;;3.67;3.37;;;;;;;;;;6155435;23;20159;-81
2024/03/14 02:56:49;;;;;;;4.03;3.73;;;;;;;;;;6129146;23;20171;-82
2024/03/14 02:59:17;;;;;;;4.63;4.23;;;;;;;;;;6155736;23;20250;-82
2024/03/14 03:01:45;;;;;;;4.53;3.97;;;;;;;;;;6155110;23;20166;-81
2024/03/14 03:04:14;;;;;;;4.80;4.40;;;;;;;;;;6155624;23;20167;-82
2024/03/14 03:06:53;;;;;;;4.60;4.20;;;;;;;;;;6154849;23;20167;-82
2024/03/14 03:09:21;;;;;;;4.83;4.43;;;;;;;;;;6155184;23;20158;-82
2024/03/14 03:11:50;;;;;;;5.30;4.80;;;;;;;;;;6129432;23;20201;-84
2024/03/14 03:14:17;;;;;;;7.00;6.30;;;;;;;;;;6155323;23;20206;-82
2024/03/14 03:16:44;;;;;;;7.50;6.80;;;;;;;;;;6130023;23;20166;-81
2024/03/14 03:19:13;;;;;;;8.07;7.33;;;;;;;;;;6155598;23;20173;-81
2024/03/14 03:21:43;;;;;;;8.67;7.87;;;;;;;;;;6105894;23;20167;-83
2024/03/14 03:24:12;;;;;;;9.77;8.77;;;;;;;;;;6155823;23;20167;-84
2024/03/14 03:26:42;;;;;;;10.37;9.37;;;;;;;;;;6155553;23;20207;-80
2024/03/14 03:29:12;;;;;;;9.40;8.40;;;;;;;;;;6155544;23;20157;-80
2024/03/14 03:31:39;;;;;;;10.13;9.13;;;;;;;;;;6123961;23;20662;-82
2024/03/14 03:34:07;;;;;;;9.90;8.90;;;;;;;;;;6100606;23;20619;-82
2024/03/14 03:36:36;;;;;;;10.40;9.40;;;;;;;;;;6124923;23;20191;-83
2024/03/14 03:39:07;;;;;;;10.30;9.30;;;;;;;;;;6125081;23;20689;-84
2024/03/14 03:41:34;;;;;;;9.73;8.83;;;;;;;;;;6126228;23;20233;-81
2024/03/14 03:44:05;;;;;;;10.10;9.10;;;;;;;;;;6124740;23;20186;-81
2024/03/14 03:46:35;;;;;;;9.67;8.67;;;;;;;;;;6124371;23;20168;-83
2024/03/14 03:49:03;;;;;;;9.83;8.90;;;;;;;;;;6125758;23;20187;-80
2024/03/14 03:51:30;;;;;;;9.30;8.33;;;;;;;;;;6125339;23;20170;-81
2024/03/14 03:54:00;;;;;;;9.40;8.50;;;;;;;;;;6125659;23;20211;-80
2024/03/14 03:56:28;;;;;;;9.60;8.60;;;;;;;;;;6125553;23;20190;-82
2024/03/14 03:58:55;;;;;;;8.80;8.00;;;;;;;;;;6123885;23;20168;-81
2024/03/14 04:01:23;;;;;;;9.13;8.03;;;;;;;;;;6125727;23;20170;-83
2024/03/14 04:03:52;;;;;;;10.17;9.03;;;;;;;;;;6099799;23;20579;-79
2024/03/14 04:06:18;;;;;;;9.27;8.37;;;;;;;;;;6123382;23;20173;-80
2024/03/14 04:08:46;;;;;;;9.80;8.83;;;;;;;;;;6124996;23;20242;-80
2024/03/14 04:11:15;;;;;;;8.90;8.10;;;;;;;;;;6123813;23;20171;-81
2024/03/14 04:13:43;;;;;;;8.57;7.77;;;;;;;;;;6125421;23;20188;-82
2024/03/14 04:16:15;;;;;;;8.47;7.60;;;;;;;;;;6123658;23;20174;-82
2024/03/14 04:18:44;;;;;;;7.80;7.10;;;;;;;;;;6100067;23;20605;-81
2024/03/14 04:21:15;;;;;;;8.50;7.70;;;;;;;;;;6099670;23;20176;-82
2024/03/14 04:23:44;;;;;;;8.77;7.93;;;;;;;;;;6124987;23;20168;-81
2024/03/14 04:26:15;;;;;;;8.20;7.40;;;;;;;;;;6099668;23;20180;-80
2024/03/14 04:28:44;;;;;;;8.77;7.90;;;;;;;;;;6125609;23;20164;-83
2024/03/14 04:31:12;;;;;;;8.73;7.53;;;;;;;;;;6123869;23;20214;-83
2024/03/14 04:33:39;;;;;;;8.77;7.67;;;;;;;;;;6124265;23;20242;-80
2024/03/14 04:36:08;;;;;;;8.90;8.00;;;;;;;;;;6125863;23;20192;-84
2024/03/14 04:38:37;;;;;;;8.80;7.67;;;;;;;;;;6125519;23;20175;-85
2024/03/14 04:41:14;;;;;;;8.93;8.03;;;;;;;;;;6100096;23;20175;-82
2024/03/14 04:43:45;;;;;;;9.07;8.17;;;;;;;;;;6124784;23;20156;-80
2024/03/14 04:46:13;;;;;;;8.30;7.50;;;;;;;;;;6125649;23;20222;-83
2024/03/14 04:48:41;;;;;;;8.63;7.83;;;;;;;;;;6124508;23;20172;-82
2024/03/14 04:51:11;;;;;;;9.00;8.10;;;;;;;;;;6124139;23;20201;-84
2024/03/14 04:53:39;;;;;;;9.67;8.77;;;;;;;;;;6125396;23;20197;-84
2024/03/14 04:56:07;;;;;;;8.77;7.97;;;;;;;;;;6124173;23;20175;-83
2024/03/14 04:58:37;;;;;;;9.50;8.17;;;;;;;;;;6100307;23;20259;-83
2024/03/14 05:01:07;;;;;;;9.60;8.20;;;;;;;;;;6099521;23;20178;-87
2024/03/14 05:03:34;;;;;;;8.67;7.60;;;;;;;;;;6125004;23;20170;-83
2024/03/14 05:06:03;;;;;;;8.90;8.00;;;;;;;;;;6124703;23;20199;-83
2024/03/14 05:08:30;;;;;;;8.60;7.80;;;;;;;;;;6123898;23;20176;-82
2024/03/14 05:10:57;;;;;;;8.93;7.97;;;;;;;;;;6123381;23;20218;-83
2024/03/14 05:13:24;;;;;;;9.30;8.40;;;;;;;;;;6123980;23;20190;-84
2024/03/14 05:15:55;;;;;;;8.57;7.57;;;;;;;;;;6100185;23;20169;-87
2024/03/14 05:18:23;;;;;;;9.47;8.40;;;;;;;;;;6124771;23;20172;-83
2024/03/14 05:20:51;;;;;;;9.33;8.43;;;;;;;;;;6123848;23;20194;-81
2024/03/14 05:23:18;;;;;;;8.77;7.90;;;;;;;;;;6123959;23;20614;-82
2024/03/14 05:25:47;;;;;;;8.77;7.93;;;;;;;;;;6123912;23;20172;-85
2024/03/14 05:28:16;;;;;;;9.03;7.77;;;;;;;;;;6125757;23;20378;-84
2024/03/14 05:30:44;;;;;;;8.77;7.97;;;;;;;;;;6123388;23;20218;-84
2024/03/14 05:33:11;;;;;;;8.57;7.77;;;;;;;;;;6123416;23;20192;-84
2024/03/14 05:35:39;;;;;;;9.30;7.80;;;;;;;;;;6123597;23;20172;-82
2024/03/14 05:38:08;;;;;;;8.97;8.07;;;;;;;;;;6125271;23;20247;-85
2024/03/14 05:40:36;;;;;;;9.00;8.10;;;;;;;;;;6125228;23;20198;-85
2024/03/14 05:43:03;;;;;;;8.53;7.70;;;;;;;;;;6101134;23;20180;-85
2024/03/14 05:45:34;;;;;;;9.30;7.77;;;;;;;;;;6125531;23;20615;-85
2024/03/14 05:48:11;;;;;;;8.17;7.37;;;;;;;;;;6124307;23;20223;-84
2024/03/14 05:50:39;;;;;;;10.93;8.37;;;;;;;;;;6124669;23;20199;-86
2024/03/14 05:53:06;;;;;;;9.77;8.30;;;;;;;;;;6124890;23;20181;-82
2024/03/14 05:55:33;;;;;;;8.83;7.33;;;;;;;;;;6122846;23;20175;-84
2024/03/14 05:58:05;;;;;;;8.63;7.70;;;;;;;;;;6122931;23;20283;-85
2024/03/14 06:00:33;;;;;;;7.50;6.80;;;;;;;;;;6098957;23;20172;-84
2024/03/14 06:03:01;;;;;;;7.77;7.07;;;;;;;;;;6098435;23;20199;-84
2024/03/14 06:05:30;;;;;;;7.37;6.67;;;;;;;;;;6121855;23;20182;-82
2024/03/14 06:07:58;;;;;;;7.67;6.93;;;;;;;;;;6121805;23;20191;-83
2024/03/14 06:10:25;;;;;;;7.33;6.63;;;;;;;;;;6097162;23;20172;-80
2024/03/14 06:12:53;;;;;;;7.37;6.67;;;;;;;;;;6123344;23;20195;-82
2024/03/14 06:15:20;;;;;;;7.13;6.40;;;;;;;;;;6119603;23;20195;-82
2024/03/14 06:17:50;;;;;;;7.43;6.63;;;;;;;;;;6120051;23;20168;-80
2024/03/14 06:20:22;;;;;;;6.87;6.27;;;;;;;;;;6121576;23;20160;-80
2024/03/14 06:22:51;;;;;;;8.23;6.67;;;;;;;;;;6121630;23;20159;-83
2024/03/14 06:25:19;;;;;;;7.17;6.47;;;;;;;;;;6120723;23;20248;-80
2024/03/14 06:27:55;;;;;;;7.43;6.63;;;;;;;;;;6121179;23;20183;-81
2024/03/14 06:30:22;;;;;;;7.33;6.67;;;;;;;;;;6098569;23;20693;-81
2024/03/14 06:32:51;;;;;;;7.50;6.77;;;;;;;;;;6125811;23;20229;-81
2024/03/14 06:35:21;;;;;;;8.23;7.43;;;;;;;;;;6125639;23;20236;-80
2024/03/14 06:37:52;;;;;;;6.93;6.03;;;;;;;;;;6100535;23;20178;-78
2024/03/14 06:40:22;;;;;;;7.23;6.53;;;;;;;;;;6126068;23;20164;-80
2024/03/14 06:42:50;;;;;;;7.10;6.40;;;;;;;;;;6125590;23;20168;-82
2024/03/14 06:45:19;;;;;;;7.77;6.93;;;;;;;;;;6125158;23;20214;-81
2024/03/14 06:47:46;;;;;;;6.60;6.00;;;;;;;;;;6123949;23;20219;-80
2024/03/14 06:50:14;;;;;;;6.70;6.10;;;;;;;;;;6123151;23;20183;-79
2024/03/14 06:52:43;;;;;;;6.07;5.57;;;;;;;;;;6123394;23;20199;-80
2024/03/14 06:55:11;;;;;;;6.10;5.60;;;;;;;;;;6124621;23;20171;-83
2024/03/14 06:57:40;;;;;;;5.87;5.37;;;;;;;;;;6122816;23;20169;-80
2024/03/14 07:00:13;;;;;;;5.83;5.33;;;;;;;;;;6123157;23;20160;-80
2024/03/14 07:02:41;;;;;;;5.50;5.00;;;;;;;;;;6123375;23;20182;-81
2024/03/14 07:05:09;;;;;;;5.63;5.13;;;;;;;;;;6123428;23;20175;-80
2024/03/14 07:07:36;;;;;;;5.20;4.70;;;;;;;;;;6124264;23;20194;-79
2024/03/14 07:10:04;;;;;;;5.40;4.90;;;;;;;;;;6124619;23;20187;-81
2024/03/14 07:12:33;;;;;;;5.00;4.50;;;;;;;;;;6123984;23;20163;-79
2024/03/14 07:15:02;;;;;;;4.70;3.90;;;;;;;;;;6124194;23;20701;-80
2024/03/14 07:17:33;;;;;;;4.37;3.97;;;;;;;;;;6121754;23;20174;-80
2024/03/14 07:20:08;;;;;;;4.00;3.70;;;;;;;;;;6122686;23;20179;-81
2024/03/14 07:22:37;;;;;;;3.80;3.07;;;;;;;;;;6124215;23;20144;-81
2024/03/14 07:25:08;;;;;;;3.80;3.50;;;;;;;;;;6124072;23;20178;-80
2024/03/14 07:27:36;;;;;;;3.50;3.20;;;;;;;;;;6122548;23;20219;-79
2024/03/14 07:30:13;;;;;;;3.77;3.47;;;;;;;;;;6122261;23;20195;-80
2024/03/14 07:32:43;;;;;;;3.73;3.30;;;;;;;;;;6124080;23;20630;-81
2024/03/14 07:35:11;;;;;;;3.60;3.30;;;;;;;;;;6122450;23;20168;-81
2024/03/14 07:37:44;;;;;;;3.13;2.70;;;;;;;;;;6124667;23;20156;-80
2024/03/14 07:40:12;;;;;;;3.10;2.80;;;;;;;;;;6123166;23;20163;-81
2024/03/14 07:42:39;;;;;;;2.73;2.53;;;;;;;;;;6121913;23;20178;-81
2024/03/14 07:45:08;;;;;;;2.60;2.40;;;;;;;;;;6123426;23;20214;-79
2024/03/14 07:47:35;;;;;;;2.90;2.70;;;;;;;;;;6121934;23;20172;-80
2024/03/14 07:50:02;;;;;;;2.70;2.33;;;;;;;;;;6124174;23;20174;-81
2024/03/14 07:52:29;;;;;;;2.97;2.27;;;;;;;;;;6122231;23;20184;-80
2024/03/14 07:54:57;;;;;;;2.70;2.40;;;;;;;;;;6121917;23;20200;-81
2024/03/14 07:57:28;;;;;;;2.60;2.40;;;;;;;;;;6123098;23;20227;-81
2024/03/14 07:59:56;;;;;;;2.73;2.53;;;;;;;;;;6123782;23;20236;-80
2024/03/14 08:02:25;;;;;;;3.10;2.70;;;;;;;;;;6123971;23;20173;-83
2024/03/14 08:04:53;;;;;;;2.60;2.40;;;;;;;;;;6124429;23;20177;-79
2024/03/14 08:07:22;;;;;;;3.03;2.73;;;;;;;;;;6122462;23;20178;-80
2024/03/14 08:09:49;;;;;;;2.60;2.40;;;;;;;;;;6123774;23;20195;-80
2024/03/14 08:12:17;;;;;;;2.77;2.47;;;;;;;;;;6123576;23;20249;-80
2024/03/14 08:14:44;;;;;;;2.90;2.60;;;;;;;;;;6123494;23;20710;-79
2024/03/14 08:17:13;;;;;;;3.20;3.00;;;;;;;;;;6123565;23;20165;-81
2024/03/14 08:19:41;;;;;;;3.43;3.13;;;;;;;;;;6122503;23;20266;-81
2024/03/14 08:22:09;;;;;;;3.07;2.87;;;;;;;;;;6123596;23;20177;-82
2024/03/14 08:24:46;;;;;;;3.43;3.07;;;;;;;;;;6123591;23;20244;-80
2024/03/14 08:27:14;;;;;;;3.00;2.80;;;;;;;;;;6122104;23;20174;-80
2024/03/14 08:29:43;;;;;;;3.40;3.10;;;;;;;;;;6127829;23;20197;-80
2024/03/14 08:32:15;;;;;;;3.27;2.97;;;;;;;;;;6126798;23;20194;-81
2024/03/14 08:34:43;;;;;;;3.17;2.90;;;;;;;;;;6152798;23;20190;-81
2024/03/14 08:37:11;;;;;;;3.40;3.10;;;;;;;;;;6126643;23;20213;-81
2024/03/14 08:39:38;;;;;;;3.10;2.90;;;;;;;;;;6153017;23;20174;-79
2024/03/14 08:42:08;;;;;;;3.00;2.80;;;;;;;;;;6102368;23;20173;-79
2024/03/14 08:44:36;;;;;;;3.23;2.90;;;;;;;;;;6127524;23;20220;-82
2024/03/14 08:47:08;;;;;;;3.50;3.20;;;;;;;;;;6126517;23;20613;-82
2024/03/14 08:49:35;;;;;;;3.37;3.07;;;;;;;;;;6127183;23;20194;-80
2024/03/14 08:52:04;;;;;;;3.50;3.07;;;;;;;;;;6152059;23;20173;-82
2024/03/14 08:54:33;;;;;;;2.87;2.67;;;;;;;;;;6126854;23;20190;-81
2024/03/14 08:57:01;;;;;;;3.53;3.23;;;;;;;;;;6125418;23;20191;-80
2024/03/14 08:59:35;;;;;;;2.97;2.67;;;;;;;;;;6152548;23;20269;-80
2024/03/14 09:02:03;;;;;;;3.13;2.90;;;;;;;;;;6126145;23;20193;-81
2024/03/14 09:04:30;;;;;;;6.17;3.20;;;;;;;;;;6127009;23;20163;-82
2024/03/14 09:06:58;;;;;;;3.43;3.00;;;;;;;;;;6126135;23;20205;-82
2024/03/14 09:09:27;;;;;;;3.30;3.00;;;;;;;;;;6152533;23;20169;-82
2024/03/14 09:12:08;;;;;;;3.73;2.70;;;;;;;;;;6126364;23;20171;-80
2024/03/14 09:14:36;;;;;;;3.13;2.67;;;;;;;;;;6151793;23;20178;-82
2024/03/14 09:17:04;;;;;;;3.30;3.00;;;;;;;;;;6126387;23;20175;-81
2024/03/14 09:19:32;;;;;;;3.13;2.90;;;;;;;;;;6126844;23;20159;-80
2024/03/14 09:22:01;;;;;;;5.00;3.10;;;;;;;;;;6152293;23;20170;-80
2024/03/14 09:24:28;;;;;;;3.00;2.80;;;;;;;;;;6126327;23;20167;-83
2024/03/14 09:26:57;;;;;;;3.93;3.53;;;;;;;;;;6126289;23;20179;-80
2024/03/14 09:29:25;;;;;;;3.50;3.20;;;;;;;;;;6125728;23;20171;-80
2024/03/14 09:31:56;;;;;;;3.83;3.53;;;;;;;;;;6152034;23;20187;-80
2024/03/14 09:34:23;;;;;;;3.53;3.23;;;;;;;;;;6126655;23;20187;-80
2024/03/14 09:36:55;;;;;;;3.10;2.80;;;;;;;;;;6125705;23;20171;-81
2024/03/14 09:39:22;;;;;;;3.40;3.10;;;;;;;;;;6152026;23;20164;-80
2024/03/14 09:41:49;;;;;;;2.90;2.70;;;;;;;;;;6126219;23;20189;-80
2024/03/14 09:44:17;;;;;;;2.70;2.50;;;;;;;;;;6150436;23;20187;-80
2024/03/14 09:46:49;;;;;;;3.40;2.60;;;;;;;;;;6125433;23;20174;-81
2024/03/14 09:49:18;;;;;;;2.63;2.43;;;;;;;;;;6125278;23;20170;-80
2024/03/14 09:51:47;;;;;;;2.60;2.40;;;;;;;;;;6101123;23;20218;-83
2024/03/14 09:54:17;;;;;;;2.50;2.30;;;;;;;;;;6151549;23;20179;-80
2024/03/14 09:56:44;;;;;;;3.07;2.87;;;;;;;;;;6152053;23;20633;-80
2024/03/14 09:59:15;;;;;;;3.33;2.53;;;;;;;;;;6126085;23;20216;-79
2024/03/14 10:01:46;;;;;;;3.30;3.00;;;;;;;;;;6102487;23;20567;-80
2024/03/14 10:04:13;;;;;;;4.90;3.17;;;;;;;;;;6152264;23;20178;-81
2024/03/14 10:06:42;;;;;;;3.30;3.00;;;;;;;;;;6128809;23;20167;-80
2024/03/14 10:09:11;;;;;;;3.30;3.10;;;;;;;;;;6154755;23;20163;-80
2024/03/14 10:12:01;;;;;;;3.50;3.20;;;;;;;;;;6154091;23;20356;-81
2024/03/14 10:14:32;;;;;;;3.03;2.83;;;;;;;;;;6126050;23;20269;-80
2024/03/14 10:16:59;;;;;;;3.77;3.47;;;;;;;;;;6153487;23;20167;-81
2024/03/14 10:19:30;;;;;;;3.40;3.17;;;;;;;;;;6154117;23;20174;-81
2024/03/14 10:21:57;;;;;;;3.60;3.30;;;;;;;;;;6154152;23;20171;-80
2024/03/14 10:24:27;;;;;;;3.10;2.73;;;;;;;;;;6128523;23;20238;-81
2024/03/14 10:26:55;;;;;;;3.17;2.80;;;;;;;;;;6128561;23;20191;-78
2024/03/14 10:29:25;;;;;;;3.10;2.80;;;;;;;;;;6127939;23;20175;-81
2024/03/14 10:31:55;;;;;;;3.03;2.83;;;;;;;;;;6126289;23;20187;-81
2024/03/14 10:34:32;;;;;;;2.70;2.50;;;;;;;;;;6126122;23;20218;-81
2024/03/14 10:37:01;;;;;;;3.57;3.27;;;;;;;;;;6127136;23;20163;-81
2024/03/14 10:39:32;;;;;;;3.03;2.83;;;;;;;;;;6149975;23;20191;-81
2024/03/14 10:42:02;;;;;;;3.20;2.93;;;;;;;;;;6124843;23;20206;-80
2024/03/14 10:44:31;;;;;;;3.23;2.90;;;;;;;;;;6152454;23;20187;-81
2024/03/14 10:47:03;;;;;;;4.17;3.47;;;;;;;;;;6129166;23;20163;-80
2024/03/14 10:49:30;;;;;;;3.90;3.20;;;;;;;;;;6153784;23;20171;-80
2024/03/14 10:52:00;;;;;;;3.20;2.90;;;;;;;;;;6153871;23;20276;-81
2024/03/14 10:54:27;;;;;;;3.00;2.80;;;;;;;;;;6153895;23;20221;-80
2024/03/14 10:56:56;;;;;;;3.00;2.80;;;;;;;;;;6127826;23;20171;-80
2024/03/14 10:59:26;;;;;;;3.53;3.23;;;;;;;;;;6154699;23;20183;-83
2024/03/14 11:01:54;;;;;;;3.90;3.60;;;;;;;;;;6153900;23;20167;-81
2024/03/14 11:04:24;;;;;;;4.43;3.50;;;;;;;;;;6127996;23;20191;-79
2024/03/14 11:06:54;;;;;;;3.90;3.60;;;;;;;;;;6127970;23;20187;-80
2024/03/14 11:09:26;;;;;;;3.87;3.57;;;;;;;;;;6154284;23;20176;-79
2024/03/14 11:11:54;;;;;;;4.40;4.00;;;;;;;;;;6128098;23;20182;-81
2024/03/14 11:14:26;;;;;;;3.90;3.60;;;;;;;;;;6128126;23;20183;-80
2024/03/14 11:16:54;;;;;;;5.07;3.90;;;;;;;;;;6127768;23;20163;-79
2024/03/14 11:19:25;;;;;;;4.57;3.60;;;;;;;;;;6128916;23;20171;-80
2024/03/14 11:21:57;;;;;;;4.03;3.63;;;;;;;;;;6153931;23;20167;-81
2024/03/14 11:24:30;;;;;;;4.20;3.90;;;;;;;;;;6153458;23;20148;-82
2024/03/14 11:26:59;;;;;;;3.70;3.40;;;;;;;;;;6153698;23;20226;-80
2024/03/14 11:29:27;;;;;;;4.30;3.90;;;;;;;;;;6152948;23;20197;-82
2024/03/14 11:32:31;;;;;;;4.60;3.70;;;;;;;;;;6127570;23;20274;-82
2024/03/14 11:35:17;;;;;;;3.70;3.40;;;;;;;;;;6130911;23;20194;-81
2024/03/14 11:37:51;;;;;;;5.27;4.77;;;;;;;;;;6153438;23;20303;-81
2024/03/14 11:40:20;;;;;;;4.10;3.80;;;;;;;;;;6153561;23;20226;-82
2024/03/14 11:42:51;;;;;;;4.50;3.60;;;;;;;;;;6153771;23;20164;-81
2024/03/14 11:45:19;;;;;;;3.57;3.27;;;;;;;;;;6127574;23;20198;-82
2024/03/14 11:47:50;;;;;;;3.80;3.50;;;;;;;;;;6153885;23;20242;-82
2024/03/14 11:50:22;;;;;;;4.47;3.57;;;;;;;;;;6153702;23;20222;-81
2024/03/14 11:52:53;;;;;;;4.20;3.80;;;;;;;;;;6127880;23;20177;-81
2024/03/14 11:55:24;;;;;;;3.70;3.40;;;;;;;;;;6154092;23;20167;-80
2024/03/14 11:57:52;;;;;;;3.80;3.50;;;;;;;;;;6154072;23;20250;-80
2024/03/14 12:00:26;;;;;;;3.70;3.40;;;;;;;;;;6128272;23;20167;-80
2024/03/14 12:02:55;;;;;;;4.00;3.70;;;;;;;;;;6154041;23;20197;-79
2024/03/14 12:05:25;;;;;;;4.23;3.83;;;;;;;;;;6153941;23;20242;-81
2024/03/14 12:07:54;;;;;;;4.23;3.93;;;;;;;;;;6154148;23;20194;-80
2024/03/14 12:10:22;;;;;;;4.50;3.97;;;;;;;;;;6154038;23;20226;-80
2024/03/14 12:12:54;;;;;;;3.73;3.43;;;;;;;;;;6127763;23;20177;-80
2024/03/14 12:15:24;;;;;;;4.17;3.80;;;;;;;;;;6127702;23;20191;-81
2024/03/14 12:17:52;;;;;;;3.63;3.33;;;;;;;;;;6103585;23;20230;-81
2024/03/14 12:20:19;;;;;;;4.23;3.73;;;;;;;;;;6153517;23;20163;-80
2024/03/14 12:22:47;;;;;;;4.40;4.00;;;;;;;;;;6153863;23;20178;-80
2024/03/14 12:25:16;;;;;;;6.03;5.43;;;;;;;;;;6154397;23;20163;-81
2024/03/14 12:27:44;;;;;;;6.67;5.93;;;;;;;;;;6128361;23;20198;-80
2024/03/14 12:30:11;;;;;;;4.60;4.20;;;;;;;;;;6153401;23;20274;-80
2024/03/14 12:33:01;;;;;;;3.90;3.60;;;;;;;;;;6152557;23;20175;-80
2024/03/14 12:35:28;;;;;;;3.57;3.27;;;;;;;;;;6153526;23;20215;-81
2024/03/14 12:37:55;;;;;;;3.40;3.20;;;;;;;;;;6127361;23;20285;-80
2024/03/14 12:40:23;;;;;;;3.23;2.80;;;;;;;;;;6128505;23;20606;-80
2024/03/14 12:42:53;;;;;;;3.07;2.87;;;;;;;;;;6153159;23;20162;-81
2024/03/14 12:45:23;;;;;;;3.60;3.30;;;;;;;;;;6153212;23;20156;-81
2024/03/14 12:47:52;;;;;;;2.90;2.70;;;;;;;;;;6127096;23;20167;-81
2024/03/14 12:50:22;;;;;;;3.30;3.00;;;;;;;;;;6126281;23;20163;-81
2024/03/14 12:53:01;;;;;;;2.93;2.63;;;;;;;;;;6151953;23;20167;-80
2024/03/14 12:55:31;;;;;;;3.20;3.00;;;;;;;;;;6126316;23;20245;-82
2024/03/14 12:58:02;;;;;;;2.70;2.50;;;;;;;;;;6126885;23;20239;-82
2024/03/14 13:00:34;;;;;;;3.30;3.00;;;;;;;;;;6152708;23;20174;-81
2024/03/14 13:03:02;;;;;;;3.20;2.83;;;;;;;;;;6152406;23;20167;-81
2024/03/14 13:05:30;;;;;;;3.13;2.80;;;;;;;;;;6126169;23;20179;-81
2024/03/14 13:08:14;;;;;;;3.53;2.80;;;;;;;;;;6126612;23;20173;-81
2024/03/14 13:10:41;;;;;;;3.27;2.97;;;;;;;;;;6152458;23;20170;-81
2024/03/14 13:13:13;;;;;;;3.07;2.77;;;;;;;;;;6152240;23;20167;-81
2024/03/14 13:15:41;;;;;;;3.17;2.87;;;;;;;;;;6151411;23;20217;-81
2024/03/14 13:18:12;;;;;;;3.13;2.80;;;;;;;;;;6102002;23;20179;-80
2024/03/14 13:20:43;;;;;;;2.90;2.70;;;;;;;;;;6151722;23;20170;-81
2024/03/14 13:23:13;;;;;;;3.33;3.03;;;;;;;;;;6125825;23;20173;-80
2024/03/14 13:25:42;;;;;;;3.40;3.10;;;;;;;;;;6151583;23;20167;-79
2024/03/14 13:28:09;;;;;;;2.93;2.73;;;;;;;;;;6151941;23;20168;-81
2024/03/14 13:30:37;;;;;;;3.50;3.20;;;;;;;;;;6152215;23;20203;-80
2024/03/14 13:33:09;;;;;;;3.43;3.23;;;;;;;;;;6152558;23;20210;-80
2024/03/14 13:35:46;;;;;;;3.87;3.57;;;;;;;;;;6151731;23;20190;-80
2024/03/14 13:38:13;;;;;;;3.53;3.27;;;;;;;;;;6126699;23;20167;-80
2024/03/14 13:40:40;;;;;;;4.13;3.83;;;;;;;;;;6151580;23;20168;-80
2024/03/14 13:43:07;;;;;;;3.57;3.27;;;;;;;;;;6126871;23;20170;-80
2024/03/14 13:45:45;;;;;;;3.17;2.87;;;;;;;;;;6124782;23;20198;-80
2024/03/14 13:48:12;;;;;;;3.30;3.00;;;;;;;;;;6125755;23;20172;-80
2024/03/14 13:50:42;;;;;;;3.53;3.23;;;;;;;;;;6125384;23;20183;-80
2024/03/14 13:53:10;;;;;;;3.20;2.90;;;;;;;;;;6152102;23;20183;-81
2024/03/14 13:55:40;;;;;;;3.20;3.00;;;;;;;;;;6126408;23;20183;-79
2024/03/14 13:58:12;;;;;;;3.23;3.03;;;;;;;;;;6152093;23;20155;-79
2024/03/14 14:00:46;;;;;;;3.37;3.07;;;;;;;;;;6152126;23;20162;-80
2024/03/14 14:03:16;;;;;;;3.50;3.20;;;;;;;;;;6150916;23;20174;-81
2024/03/14 14:05:44;;;;;;;3.60;3.30;;;;;;;;;;6152085;23;20167;-80
2024/03/14 14:08:12;;;;;;;3.77;3.47;;;;;;;;;;6151750;23;20197;-81
2024/03/14 14:10:40;;;;;;;4.40;3.27;;;;;;;;;;6125919;23;20185;-81
2024/03/14 14:13:09;;;;;;;3.67;3.37;;;;;;;;;;6151777;23;20164;-81
2024/03/14 14:15:35;;;;;;;4.00;3.70;;;;;;;;;;6151700;23;20198;-81
2024/03/14 14:18:07;;;;;;;3.20;2.90;;;;;;;;;;6151923;23;20171;-80
2024/03/14 14:20:35;;;;;;;3.23;3.00;;;;;;;;;;6151598;23;20172;-79
2024/03/14 14:23:03;;;;;;;3.10;2.90;;;;;;;;;;6125801;23;20641;-81
2024/03/14 14:25:33;;;;;;;3.37;3.07;;;;;;;;;;6151527;23;20170;-80
2024/03/14 14:28:00;;;;;;;3.87;3.33;;;;;;;;;;6151536;23;20218;-80
2024/03/14 14:30:30;;;;;;;3.40;3.00;;;;;;;;;;6150917;23;20191;-82
2024/03/14 14:32:58;;;;;;;3.33;3.10;;;;;;;;;;6151795;23;20158;-81
2024/03/14 14:35:26;;;;;;;3.40;3.20;;;;;;;;;;6124780;23;20565;-81
2024/03/14 14:37:57;;;;;;;3.50;3.20;;;;;;;;;;6148850;23;20182;-81
2024/03/14 14:40:24;;;;;;;3.70;3.30;;;;;;;;;;6148693;23;20242;-81
2024/03/14 14:42:56;;;;;;;3.57;3.27;;;;;;;;;;6149629;23;20163;-80
2024/03/14 14:45:24;;;;;;;3.90;3.30;;;;;;;;;;6126030;23;20214;-81
2024/03/14 14:47:51;;;;;;;3.00;2.70;;;;;;;;;;6152108;23;20168;-80
2024/03/14 14:50:18;;;;;;;3.20;2.87;;;;;;;;;;6152205;23;20623;-81
2024/03/14 14:52:46;;;;;;;3.37;3.07;;;;;;;;;;6153386;23;20614;-81
2024/03/14 14:55:13;;;;;;;3.20;2.90;;;;;;;;;;6153698;23;20207;-80